createdAt,value
2024-04-24T00:00:36.309Z,6.21
2024-04-24T00:03:09.120Z,6.10
2024-04-24T00:05:36.635Z,6.16
2024-04-24T00:08:03.547Z,6.14
2024-04-24T00:10:30.157Z,6.23
2024-04-24T00:12:56.789Z,6.27
2024-04-24T00:15:23.382Z,6.23
2024-04-24T00:17:50.011Z,6.30
2024-04-24T00:20:16.655Z,6.27
2024-04-24T00:22:43.220Z,6.31
2024-04-24T00:25:10.543Z,6.31
2024-04-24T00:27:37.146Z,6.38
2024-04-24T00:30:03.906Z,6.54
2024-04-24T00:32:30.560Z,6.58
2024-04-24T00:34:57.384Z,6.44
2024-04-24T00:37:24.014Z,6.55
2024-04-24T00:39:50.552Z,6.55
2024-04-24T00:42:21.027Z,6.60
2024-04-24T00:44:47.867Z,6.49
2024-04-24T00:47:16.515Z,6.56
2024-04-24T00:49:44.870Z,6.51
2024-04-24T00:52:11.766Z,6.47
2024-04-24T00:54:38.727Z,6.48
2024-04-24T00:57:05.555Z,6.51
2024-04-24T00:59:32.267Z,6.42
2024-04-24T01:01:59.006Z,6.35
2024-04-24T01:04:25.683Z,6.33
2024-04-24T01:06:52.219Z,6.18
2024-04-24T01:09:22.379Z,6.04
2024-04-24T01:11:48.989Z,5.97
2024-04-24T01:14:15.844Z,5.92
2024-04-24T01:16:43.860Z,5.89
2024-04-24T01:19:42.441Z,5.83
2024-04-24T01:22:27.845Z,5.95
2024-04-24T01:25:36.764Z,5.92
2024-04-24T01:28:04.527Z,5.83
2024-04-24T01:30:32.427Z,5.85
2024-04-24T01:32:59.176Z,5.82
2024-04-24T01:35:25.972Z,5.80
2024-04-24T01:37:52.571Z,5.83
2024-04-24T01:40:19.124Z,5.73
2024-04-24T01:42:45.658Z,5.69
2024-04-24T01:45:12.291Z,5.79
2024-04-24T01:47:38.917Z,5.72
2024-04-24T01:50:06.043Z,5.70
2024-04-24T01:52:32.604Z,5.70
2024-04-24T01:54:59.301Z,5.69
2024-04-24T01:57:25.853Z,5.63
2024-04-24T01:59:52.438Z,5.70
2024-04-24T02:02:19.142Z,5.67
2024-04-24T02:04:46.118Z,5.70
2024-04-24T02:07:12.664Z,5.65
2024-04-24T02:09:39.260Z,5.67
2024-04-24T02:12:10.666Z,5.59
2024-04-24T02:14:42.709Z,5.65
2024-04-24T02:17:09.861Z,5.69
2024-04-24T02:19:37.458Z,5.62
2024-04-24T02:22:04.306Z,5.69
2024-04-24T02:24:49.773Z,5.67
2024-04-24T02:27:19.441Z,5.56
2024-04-24T02:29:52.028Z,5.72
2024-04-24T02:32:24.053Z,5.60
2024-04-24T02:34:51.207Z,5.62
2024-04-24T02:37:17.806Z,5.65
2024-04-24T02:39:44.380Z,5.62
2024-04-24T02:42:10.933Z,5.62
2024-04-24T02:44:38.249Z,5.63
2024-04-24T02:47:04.955Z,5.60
2024-04-24T02:49:31.594Z,5.48
2024-04-24T02:51:58.222Z,5.48
2024-04-24T02:54:24.851Z,5.39
2024-04-24T02:56:53.315Z,5.42
2024-04-24T02:59:20.342Z,5.41
2024-04-24T03:01:47.100Z,5.39
2024-04-24T03:04:13.757Z,5.39
2024-04-24T03:06:44.333Z,5.41
2024-04-24T03:09:11.834Z,5.55
2024-04-24T03:11:42.143Z,5.56
2024-04-24T03:14:09.410Z,5.58
2024-04-24T03:16:36.784Z,5.55
2024-04-24T03:19:03.445Z,5.48
2024-04-24T03:21:30.009Z,5.62
2024-04-24T03:23:56.668Z,5.63
2024-04-24T03:26:23.606Z,5.51
2024-04-24T03:28:52.588Z,5.54
2024-04-24T03:31:20.369Z,5.48
2024-04-24T03:33:47.079Z,5.51
2024-04-24T03:36:13.783Z,5.55
2024-04-24T03:38:40.277Z,5.72
2024-04-24T03:41:06.880Z,5.73
2024-04-24T03:43:33.468Z,5.66
2024-04-24T03:46:00.915Z,5.72
2024-04-24T03:48:27.483Z,5.80
2024-04-24T03:50:54.210Z,6.00
2024-04-24T03:53:20.887Z,5.89
2024-04-24T03:55:47.525Z,5.86
2024-04-24T03:58:14.093Z,5.96
2024-04-24T04:00:40.672Z,5.93
2024-04-24T04:03:12.755Z,5.80
2024-04-24T04:05:42.540Z,5.67
2024-04-24T04:08:09.233Z,5.70
2024-04-24T04:10:35.776Z,5.62
2024-04-24T04:13:05.352Z,5.51
2024-04-24T04:15:32.113Z,5.44
2024-04-24T04:18:00.192Z,5.52
2024-04-24T04:20:27.258Z,5.54
2024-04-24T04:22:54.900Z,5.58
2024-04-24T04:25:21.534Z,5.51
2024-04-24T04:27:48.816Z,5.52
2024-04-24T04:30:16.390Z,5.49
2024-04-24T04:32:43.601Z,5.49
2024-04-24T04:35:10.299Z,5.56
2024-04-24T04:37:39.667Z,5.58
2024-04-24T04:40:07.371Z,5.52
2024-04-24T04:42:34.212Z,5.49
2024-04-24T04:45:00.862Z,5.41
2024-04-24T04:47:27.585Z,5.44
2024-04-24T04:49:54.282Z,5.39
2024-04-24T04:52:21.105Z,5.41
2024-04-24T04:54:47.748Z,5.44
2024-04-24T04:57:16.529Z,5.41
2024-04-24T04:59:43.071Z,5.42
2024-04-24T05:02:09.916Z,5.32
2024-04-24T05:04:36.891Z,5.39
2024-04-24T05:07:03.504Z,5.39
2024-04-24T05:09:30.800Z,5.42
2024-04-24T05:11:58.877Z,5.41
2024-04-24T05:14:25.572Z,5.49
2024-04-24T05:16:52.385Z,5.51
2024-04-24T05:19:19.180Z,5.44
2024-04-24T05:21:45.739Z,5.38
2024-04-24T05:24:12.362Z,5.39
2024-04-24T05:26:57.850Z,5.49
2024-04-24T05:29:24.637Z,5.56
2024-04-24T05:31:51.522Z,5.55
2024-04-24T05:34:18.177Z,5.54
2024-04-24T05:36:45.107Z,5.49
2024-04-24T05:39:11.976Z,5.54
2024-04-24T05:41:38.606Z,5.46
2024-04-24T05:44:05.461Z,5.48
2024-04-24T05:46:32.100Z,5.59
2024-04-24T05:48:58.877Z,5.55
2024-04-24T05:51:25.465Z,5.63
2024-04-24T05:53:52.091Z,5.75
2024-04-24T05:56:20.176Z,5.76
2024-04-24T05:58:48.452Z,5.85
2024-04-24T06:01:15.226Z,5.79
2024-04-24T06:03:41.917Z,5.77
2024-04-24T06:06:08.445Z,5.67
2024-04-24T06:08:35.111Z,5.77
2024-04-24T06:11:01.868Z,5.72
2024-04-24T06:13:28.560Z,5.67
2024-04-24T06:15:56.321Z,5.69
2024-04-24T06:18:23.072Z,5.67
2024-04-24T06:20:49.599Z,5.83
2024-04-24T06:23:16.267Z,5.96
2024-04-24T06:25:45.692Z,5.87
2024-04-24T06:28:12.681Z,5.83
2024-04-24T06:32:37.294Z,5.79
2024-04-24T06:35:04.707Z,5.77
2024-04-24T06:37:31.317Z,6.14
2024-04-24T06:39:57.865Z,6.07
2024-04-24T06:42:24.555Z,6.28
2024-04-24T06:44:53.058Z,6.38
2024-04-24T06:47:19.712Z,6.45
2024-04-24T06:49:46.338Z,6.47
2024-04-24T06:52:13.144Z,6.40
2024-04-24T06:54:39.842Z,6.41
2024-04-24T06:57:06.443Z,6.38
2024-04-24T06:59:34.731Z,6.16
2024-04-24T07:02:01.417Z,6.02
2024-04-24T07:04:28.164Z,6.23
2024-04-24T07:06:54.829Z,6.21
2024-04-24T07:09:21.441Z,6.14
2024-04-24T07:11:48.080Z,6.35
2024-04-24T07:14:14.837Z,6.44
2024-04-24T07:16:42.874Z,6.38
2024-04-24T07:19:12.061Z,6.42
2024-04-24T07:21:40.064Z,6.48
2024-04-24T07:24:06.842Z,6.38
2024-04-24T07:26:33.844Z,6.56
2024-04-24T07:29:00.468Z,6.88
2024-04-24T07:31:30.417Z,6.86
2024-04-24T07:33:57.061Z,7.13
2024-04-24T07:36:23.711Z,6.82
2024-04-24T07:38:50.258Z,6.99
2024-04-24T07:41:16.949Z,6.92
2024-04-24T07:43:43.624Z,6.79
2024-04-24T07:46:10.556Z,6.41
2024-04-24T07:48:37.259Z,6.21
2024-04-24T07:51:04.247Z,6.35
2024-04-24T07:53:33.971Z,6.71
2024-04-24T07:56:02.269Z,7.71
2024-04-24T07:58:33.386Z,7.35
2024-04-24T08:01:01.219Z,7.14
2024-04-24T08:03:27.957Z,7.85
2024-04-24T08:05:54.942Z,7.79
2024-04-24T08:08:21.572Z,9.29
2024-04-24T08:10:48.857Z,8.82
2024-04-24T08:13:17.072Z,9.80
2024-04-24T08:15:43.911Z,8.42
2024-04-24T08:18:10.529Z,7.33
2024-04-24T08:20:37.172Z,7.54
2024-04-24T08:23:04.138Z,7.28
2024-04-24T08:25:30.862Z,7.55
2024-04-24T08:27:57.456Z,9.32
2024-04-24T08:30:24.883Z,8.53
2024-04-24T08:32:51.554Z,8.47
2024-04-24T08:35:18.266Z,8.40
2024-04-24T08:37:44.849Z,8.19
2024-04-24T08:40:11.810Z,7.95
2024-04-24T08:42:38.666Z,7.84
2024-04-24T08:45:06.150Z,7.75
2024-04-24T08:47:34.138Z,8.07
2024-04-24T08:50:00.847Z,8.32
2024-04-24T08:52:28.882Z,8.25
2024-04-24T08:54:59.582Z,8.56
2024-04-24T08:57:27.813Z,7.92
2024-04-24T08:59:56.943Z,7.65
2024-04-24T09:02:29.031Z,7.37
2024-04-24T09:05:00.680Z,6.97
2024-04-24T09:07:28.743Z,6.64
2024-04-24T09:09:55.729Z,6.47
2024-04-24T09:12:22.909Z,6.41
2024-04-24T09:14:49.630Z,6.52
2024-04-24T09:17:16.301Z,6.44
2024-04-24T09:19:43.872Z,6.64
2024-04-24T09:22:10.554Z,7.00
2024-04-24T09:24:38.042Z,7.39
2024-04-24T09:27:04.680Z,7.88
2024-04-24T09:29:31.378Z,8.57
2024-04-24T09:31:58.113Z,8.68
2024-04-24T09:34:27.309Z,8.82
2024-04-24T09:36:55.246Z,8.91
2024-04-24T09:39:21.829Z,9.52
2024-04-24T09:41:49.330Z,9.94
2024-04-24T09:44:16.375Z,9.04
2024-04-24T09:46:53.283Z,7.85
2024-04-24T09:49:21.233Z,7.42
2024-04-24T09:51:50.962Z,7.16
2024-04-24T09:54:18.783Z,7.03
2024-04-24T09:56:50.098Z,6.79
2024-04-24T09:59:19.020Z,6.81
2024-04-24T10:01:54.865Z,6.63
2024-04-24T10:04:23.581Z,6.99
2024-04-24T10:06:52.099Z,7.39
2024-04-24T10:09:24.224Z,7.74
2024-04-24T10:11:57.421Z,8.03
2024-04-24T10:14:25.658Z,9.22
2024-04-24T10:16:53.897Z,8.39
2024-04-24T10:19:22.296Z,8.10
2024-04-24T10:21:49.733Z,8.13
2024-04-24T10:24:18.874Z,8.25
2024-04-24T10:26:46.476Z,8.09
2024-04-24T10:29:17.482Z,8.18
2024-04-24T10:31:48.829Z,8.64
2024-04-24T10:34:16.830Z,8.73
2024-04-24T10:36:44.455Z,9.26
2024-04-24T10:39:11.814Z,9.16
2024-04-24T10:41:38.902Z,9.79
2024-04-24T10:44:08.750Z,9.40
2024-04-24T10:46:38.957Z,9.14
2024-04-24T10:49:07.846Z,9.38
2024-04-24T10:51:37.288Z,10.10
2024-04-24T10:54:10.261Z,9.60
2024-04-24T10:56:41.573Z,9.12
2024-04-24T10:59:08.397Z,9.60
2024-04-24T11:01:42.977Z,9.04
2024-04-24T11:04:17.993Z,9.15
2024-04-24T11:06:45.724Z,8.95
2024-04-24T11:09:12.512Z,8.50
2024-04-24T11:11:39.590Z,8.54
2024-04-24T11:14:12.110Z,8.49
2024-04-24T11:16:41.165Z,8.81
2024-04-24T11:19:08.759Z,8.78
2024-04-24T11:21:35.527Z,8.57
2024-04-24T11:24:03.049Z,8.84
2024-04-24T11:26:35.238Z,8.59
2024-04-24T11:29:09.036Z,8.32
2024-04-24T11:31:44.489Z,8.34
2024-04-24T11:34:12.845Z,8.33
2024-04-24T11:36:40.890Z,8.53
2024-04-24T11:39:07.850Z,8.32
2024-04-24T11:41:37.772Z,8.50
2024-04-24T11:44:06.150Z,8.33
2024-04-24T11:46:33.504Z,8.10
2024-04-24T11:49:02.332Z,7.81
2024-04-24T11:51:34.962Z,7.55
2024-04-24T11:54:03.222Z,7.17
2024-04-24T11:56:34.782Z,7.39
2024-04-24T11:59:03.549Z,7.78
2024-04-24T12:01:31.944Z,8.25
2024-04-24T12:04:02.280Z,8.49
2024-04-24T12:06:32.744Z,8.59
2024-04-24T12:09:04.672Z,9.02
2024-04-24T12:11:41.618Z,9.43
2024-04-24T12:14:08.790Z,9.57
2024-04-24T12:16:35.371Z,9.80
2024-04-24T12:19:03.207Z,12.28
2024-04-24T12:21:29.885Z,11.20
2024-04-24T12:23:56.810Z,10.12
2024-04-24T12:26:23.491Z,11.39
2024-04-24T12:28:50.274Z,12.13
2024-04-24T12:31:17.938Z,11.16
2024-04-24T12:33:44.703Z,11.06
2024-04-24T12:36:11.344Z,12.26
2024-04-24T12:38:38.127Z,12.02
2024-04-24T12:41:04.732Z,11.68
2024-04-24T12:43:31.313Z,11.47
2024-04-24T12:45:57.857Z,11.08
2024-04-24T12:48:24.488Z,10.18
2024-04-24T12:50:51.427Z,9.79
2024-04-24T12:53:18.068Z,9.26
2024-04-24T12:55:44.940Z,8.09
2024-04-24T12:58:14.796Z,6.78
2024-04-24T13:00:42.972Z,6.42
2024-04-24T13:03:09.764Z,6.52
2024-04-24T13:05:36.823Z,6.63
2024-04-24T13:08:08.216Z,7.54
2024-04-24T13:10:35.030Z,8.65
2024-04-24T13:13:01.720Z,9.14
2024-04-24T13:15:31.597Z,9.11
2024-04-24T13:17:58.391Z,9.32
2024-04-24T13:20:25.325Z,8.95
2024-04-24T13:22:55.413Z,8.81
2024-04-24T13:25:22.894Z,8.74
2024-04-24T13:27:50.456Z,8.91
2024-04-24T13:30:17.135Z,8.89
2024-04-24T13:32:44.046Z,8.77
2024-04-24T13:35:10.760Z,8.73
2024-04-24T13:37:37.451Z,8.78
2024-04-24T13:40:04.207Z,8.73
2024-04-24T13:42:30.782Z,7.91
2024-04-24T13:44:57.423Z,7.47
2024-04-24T13:47:26.093Z,7.19
2024-04-24T13:49:52.728Z,6.95
2024-04-24T13:52:19.728Z,6.75
2024-04-24T13:54:46.263Z,6.48
2024-04-24T13:57:15.417Z,6.28
2024-04-24T13:59:42.148Z,6.28
2024-04-24T14:02:08.764Z,6.95
2024-04-24T14:04:35.473Z,7.84
2024-04-24T14:07:02.121Z,7.05
2024-04-24T14:09:30.295Z,6.93
2024-04-24T14:12:02.597Z,6.91
2024-04-24T14:14:30.965Z,7.40
2024-04-24T14:17:00.831Z,8.43
2024-04-24T14:19:28.060Z,8.81
2024-04-24T14:21:54.591Z,9.38
2024-04-24T14:24:21.434Z,9.91
2024-04-24T14:26:48.364Z,9.87
2024-04-24T14:29:16.613Z,10.35
2024-04-24T14:31:44.590Z,10.29
2024-04-24T14:34:12.041Z,9.87
2024-04-24T14:36:38.785Z,10.69
2024-04-24T14:39:05.390Z,10.00
2024-04-24T14:41:31.984Z,9.33
2024-04-24T14:43:58.976Z,9.74
2024-04-24T14:46:25.784Z,9.53
2024-04-24T14:48:53.515Z,9.42
2024-04-24T14:51:20.253Z,9.04
2024-04-24T14:53:46.996Z,9.60
2024-04-24T14:56:13.703Z,9.57
2024-04-24T14:58:40.618Z,9.49
2024-04-24T15:01:07.529Z,9.40
2024-04-24T15:03:34.176Z,9.50
2024-04-24T15:06:01.703Z,9.70
2024-04-24T15:08:28.486Z,10.20
2024-04-24T15:10:55.195Z,9.89
2024-04-24T15:13:22.096Z,8.98
2024-04-24T15:15:48.759Z,8.57
2024-04-24T15:18:18.488Z,8.64
2024-04-24T15:20:46.909Z,8.65
2024-04-24T15:23:14.967Z,8.49
2024-04-24T15:25:48.105Z,8.47
2024-04-24T15:28:14.836Z,8.85
2024-04-24T15:30:44.933Z,9.25
2024-04-24T15:33:11.830Z,9.47
2024-04-24T15:35:39.346Z,9.46
2024-04-24T15:38:06.255Z,9.49
2024-04-24T15:40:32.845Z,9.23
2024-04-24T15:42:59.442Z,9.07
2024-04-24T15:45:26.958Z,9.87
2024-04-24T15:47:54.083Z,8.95
2024-04-24T15:50:20.824Z,8.64
2024-04-24T15:52:47.656Z,9.05
2024-04-24T15:55:14.463Z,9.90
2024-04-24T15:57:42.733Z,9.47
2024-04-24T16:00:12.554Z,9.18
2024-04-24T16:02:39.924Z,9.00
2024-04-24T16:05:11.062Z,9.11
2024-04-24T16:07:37.708Z,9.15
2024-04-24T16:10:05.016Z,9.40
2024-04-24T16:12:31.572Z,9.36
2024-04-24T16:14:58.400Z,9.04
2024-04-24T16:17:25.090Z,9.07
2024-04-24T16:19:52.022Z,8.91
2024-04-24T16:22:18.633Z,8.89
2024-04-24T16:24:45.204Z,8.68
2024-04-24T16:27:11.818Z,8.50
2024-04-24T16:29:40.310Z,8.67
2024-04-24T16:32:07.428Z,8.37
2024-04-24T16:34:34.035Z,8.73
2024-04-24T16:37:03.739Z,7.35
2024-04-24T16:39:30.371Z,6.35
2024-04-24T16:41:57.177Z,6.18
2024-04-24T16:44:23.830Z,5.63
2024-04-24T16:46:50.393Z,5.79
2024-04-24T16:49:17.025Z,5.85
2024-04-24T16:51:43.588Z,5.75
2024-04-24T16:54:10.495Z,5.75
2024-04-24T16:56:38.730Z,6.17
2024-04-24T16:59:05.389Z,6.41
2024-04-24T17:01:34.240Z,6.65
2024-04-24T17:04:00.963Z,6.72
2024-04-24T17:06:27.641Z,6.71
2024-04-24T17:08:54.195Z,6.76
2024-04-24T17:11:21.999Z,6.89
2024-04-24T17:13:48.623Z,7.16
2024-04-24T17:16:15.321Z,7.17
2024-04-24T17:18:42.040Z,7.06
2024-04-24T17:21:09.677Z,7.09
2024-04-24T17:23:37.462Z,7.16
2024-04-24T17:26:04.451Z,7.28
2024-04-24T17:28:31.348Z,7.39
2024-04-24T17:30:57.924Z,7.48
2024-04-24T17:33:24.606Z,7.70
2024-04-24T17:35:52.514Z,7.48
2024-04-24T17:38:19.649Z,7.43
2024-04-24T17:40:46.411Z,7.42
2024-04-24T17:43:14.151Z,7.44
2024-04-24T17:45:42.057Z,7.58
2024-04-24T17:48:09.769Z,7.74
2024-04-24T17:50:37.735Z,7.70
2024-04-24T17:53:05.693Z,7.67
2024-04-24T17:57:37.025Z,7.75
2024-04-24T18:00:04.546Z,7.72
2024-04-24T18:02:31.836Z,7.77
2024-04-24T18:05:01.883Z,7.64
2024-04-24T18:07:29.168Z,7.72
2024-04-24T18:09:55.691Z,7.68
2024-04-24T18:12:22.252Z,7.50
2024-04-24T18:14:48.881Z,7.47
2024-04-24T18:17:17.136Z,7.61
2024-04-24T18:19:43.992Z,7.51
2024-04-24T18:22:10.711Z,7.47
2024-04-24T18:24:37.351Z,7.53
2024-04-24T18:27:04.111Z,7.44
2024-04-24T18:29:30.757Z,7.47
2024-04-24T18:31:57.394Z,7.46
2024-04-24T18:34:24.412Z,7.28
2024-04-24T18:36:51.053Z,7.13
2024-04-24T18:39:18.093Z,7.10
2024-04-24T18:41:44.754Z,7.12
2024-04-24T18:44:11.454Z,7.16
2024-04-24T18:46:38.048Z,7.12
2024-04-24T18:49:04.885Z,7.13
2024-04-24T18:51:33.745Z,7.13
2024-04-24T18:54:00.779Z,7.19
2024-04-24T18:56:27.414Z,7.16
2024-04-24T18:58:54.075Z,7.10
2024-04-24T19:01:23.614Z,7.05
2024-04-24T19:03:50.268Z,7.10
2024-04-24T19:06:16.888Z,7.03
2024-04-24T19:08:43.414Z,6.89
2024-04-24T19:11:10.068Z,6.84
2024-04-24T19:13:36.840Z,6.79
2024-04-24T19:16:03.606Z,6.88
2024-04-24T19:18:30.221Z,6.91
2024-04-24T19:21:03.398Z,7.05
2024-04-24T19:23:30.144Z,7.06
2024-04-24T19:25:56.994Z,7.03
2024-04-24T19:28:23.789Z,7.07
2024-04-24T19:30:50.346Z,7.05
2024-04-24T19:33:17.163Z,7.00
2024-04-24T19:35:43.909Z,7.17
2024-04-24T19:38:12.190Z,7.05
2024-04-24T19:40:39.042Z,7.10
2024-04-24T19:43:06.049Z,7.10
2024-04-24T19:45:33.997Z,7.07
2024-04-24T19:48:00.612Z,7.07
2024-04-24T19:50:28.478Z,7.23
2024-04-24T19:52:56.966Z,7.09
2024-04-24T19:55:23.597Z,7.05
2024-04-24T19:57:51.451Z,7.09
2024-04-24T20:00:18.022Z,7.14
2024-04-24T20:02:44.908Z,7.03
2024-04-24T20:05:11.633Z,6.96
2024-04-24T20:07:38.246Z,7.00
2024-04-24T20:10:05.724Z,6.99
2024-04-24T20:12:32.690Z,6.99
2024-04-24T20:14:59.220Z,6.96
2024-04-24T20:17:25.865Z,6.99
2024-04-24T20:19:52.772Z,7.02
2024-04-24T20:22:19.416Z,6.96
2024-04-24T20:24:45.987Z,7.03
2024-04-24T20:27:14.107Z,6.91
2024-04-24T20:29:42.152Z,6.74
2024-04-24T20:32:09.400Z,6.88
2024-04-24T20:34:36.263Z,6.88
2024-04-24T20:37:03.374Z,6.95
2024-04-24T20:39:30.992Z,6.89
2024-04-24T20:41:57.953Z,6.82
2024-04-24T20:44:25.942Z,6.74
2024-04-24T20:46:53.848Z,6.67
2024-04-24T20:49:21.791Z,6.56
2024-04-24T20:51:48.359Z,6.60
2024-04-24T20:54:16.152Z,6.68
2024-04-24T20:56:42.736Z,6.75
2024-04-24T20:59:09.825Z,6.93
2024-04-24T21:01:38.307Z,6.96
2024-04-24T21:04:05.458Z,6.85
2024-04-24T21:06:32.127Z,6.93
2024-04-24T21:08:59.246Z,6.91
2024-04-24T21:11:26.091Z,6.84
2024-04-24T21:13:58.368Z,6.82
2024-04-24T21:16:25.573Z,6.91
2024-04-24T21:18:52.747Z,6.75
2024-04-24T21:21:19.582Z,6.75
2024-04-24T21:23:46.307Z,6.65
2024-04-24T21:26:13.232Z,6.69
2024-04-24T21:28:40.100Z,6.72
2024-04-24T21:31:06.967Z,6.76
2024-04-24T21:33:34.564Z,6.88
2024-04-24T21:36:02.364Z,6.67
2024-04-24T21:38:32.630Z,6.74
2024-04-24T21:40:59.503Z,6.75
2024-04-24T21:43:27.068Z,6.68
2024-04-24T21:45:54.611Z,6.56
2024-04-24T21:48:21.510Z,6.52
2024-04-24T21:50:50.722Z,6.44
2024-04-24T21:53:17.451Z,6.38
2024-04-24T21:55:44.094Z,6.35
2024-04-24T21:58:10.638Z,6.48
2024-04-24T22:00:37.386Z,6.41
2024-04-24T22:03:04.931Z,6.33
2024-04-24T22:05:34.379Z,6.21
2024-04-24T22:08:03.540Z,6.21
2024-04-24T22:10:30.208Z,6.13
2024-04-24T22:13:01.359Z,6.14
2024-04-24T22:15:33.976Z,6.23
2024-04-24T22:18:02.290Z,6.13
2024-04-24T22:20:28.987Z,6.21
2024-04-24T22:22:55.587Z,6.27
2024-04-24T22:25:23.349Z,6.30
2024-04-24T22:27:51.084Z,6.44
2024-04-24T22:30:17.922Z,6.55
2024-04-24T22:32:44.667Z,6.67
2024-04-24T22:35:14.673Z,6.54
2024-04-24T22:37:41.293Z,6.54
2024-04-24T22:40:08.249Z,6.54
2024-04-24T22:42:34.822Z,6.52
2024-04-24T22:45:01.416Z,6.52
2024-04-24T22:47:28.110Z,6.48
2024-04-24T22:49:54.761Z,6.42
2024-04-24T22:52:21.373Z,6.38
2024-04-24T22:54:47.945Z,6.30
2024-04-24T22:57:14.685Z,6.28
2024-04-24T22:59:41.402Z,6.18
2024-04-24T23:02:08.461Z,6.20
2024-04-24T23:04:35.033Z,6.13
2024-04-24T23:07:01.672Z,6.17
2024-04-24T23:09:28.288Z,6.17
2024-04-24T23:11:54.991Z,6.16
2024-04-24T23:14:26.151Z,6.03
2024-04-24T23:16:54.081Z,5.97
2024-04-24T23:19:21.627Z,5.93
2024-04-24T23:21:48.978Z,5.97
2024-04-24T23:24:16.715Z,5.97
2024-04-24T23:26:47.932Z,5.95
2024-04-24T23:29:15.105Z,5.96
2024-04-24T23:31:41.878Z,5.93
2024-04-24T23:34:08.695Z,5.89
2024-04-24T23:36:35.309Z,5.96
2024-04-24T23:39:01.886Z,5.96
2024-04-24T23:41:28.473Z,6.00
2024-04-24T23:43:55.068Z,5.97
2024-04-24T23:46:21.741Z,5.99
2024-04-24T23:48:48.394Z,6.02
2024-04-24T23:51:14.993Z,6.03
2024-04-24T23:53:41.876Z,5.99
2024-04-24T23:56:08.565Z,5.99
